Ladora, Iowa
Current Conditions -  °F | °C
As of 10:52 PM on Friday 24 Oct 2014 (Local Time) from KCID Reporting Station
Moderate Fog Moderate Fog  
Wind Chill: 53°   Ceiling: 200
Heat Index: 53°   Visibility: 0.5mi
Dew Point: 53°   Wind: 5mph
Humidity: 100%   Direction: 220°SW
Pressure: 29.94"   Gusts: NA
Location:  41.75°N, 92.18°W
Report Text: KCID 250352Z 22004KT 1/2SM FG VV002 12/12 A2994 RMK AO2 SLP141 T01170117
Loading
Personal Weather Stations






























Interactive Weather Map
Tropical Storm Tracking
New forecast layout! Learn more

10-Day Weather Forecast

Advertisements
Track Severe Weather on mobile